Time;durP1;ratioP1;P1;durP2;ratioP2;P2;SDS_P1;SDS_P2;PMS_P1;PMS_P2;Temp;Humidity;BMP_temperature;BMP_pressure;BME280_temperature;BME280_humidity;BME280_pressure;Samples;Min_cycle;Max_cycle;Signal;HPM_P1;HPM_P2
2022/07/20 00:00:58;;;;;;;6.40;5.90;;;22.40;49.80;;;21.88;47.55;98084.75;4990613;28;20526;-80
2022/07/20 00:03:25;;;;;;;6.80;6.20;;;22.40;49.90;;;21.90;47.27;98082.50;5009394;28;20487;-79
2022/07/20 00:05:52;;;;;;;6.50;5.80;;;22.40;49.80;;;21.93;47.39;98073.72;4991324;28;20988;-80
2022/07/20 00:13:52;;;;;;;6.83;6.20;;;22.40;49.90;;;21.77;47.77;98079.34;4991536;28;21038;-79
2022/07/20 00:16:19;;;;;;;6.13;5.57;;;22.40;50.10;;;21.64;47.90;98063.47;4990442;28;20467;-78
2022/07/20 00:18:46;;;;;;;6.80;5.37;;;22.30;50.30;;;21.70;47.77;98073.34;4989960;28;20521;-77
2022/07/20 00:21:14;;;;;;;6.67;5.53;;;22.30;50.10;;;21.62;47.93;98077.50;4989877;28;20911;-77
2022/07/20 00:23:43;;;;;;;6.47;5.93;;;22.20;50.10;;;21.62;48.22;98076.69;4990823;28;20451;-78
2022/07/20 00:26:11;;;;;;;5.60;5.10;;;22.20;50.30;;;21.52;48.41;98077.56;4987497;28;20888;-79
2022/07/20 00:28:38;;;;;;;6.43;5.50;;;22.10;50.40;;;21.40;48.94;98080.69;4990871;28;22125;-78
2022/07/20 00:31:06;;;;;;;7.83;5.43;;;22.10;50.50;;;21.41;48.96;98085.06;4987148;28;20886;-78
2022/07/20 00:33:34;;;;;;;6.97;5.87;;;22.00;50.60;;;21.38;48.84;98080.16;4991757;28;20478;-80
2022/07/20 00:36:03;;;;;;;7.40;5.43;;;22.00;50.60;;;21.34;49.02;98079.09;5006954;28;20489;-79
2022/07/20 00:38:31;;;;;;;6.43;5.50;;;22.00;50.80;;;21.37;48.97;98075.75;4997905;28;20443;-76
2022/07/20 00:41:00;;;;;;;6.23;5.57;;;22.00;50.80;;;21.21;49.39;98078.59;5004007;28;20455;-79
2022/07/20 00:43:27;;;;;;;6.30;5.37;;;21.90;50.90;;;21.14;49.61;98069.84;5010132;28;20529;-77
2022/07/20 00:45:54;;;;;;;5.93;5.53;;;21.80;51.10;;;21.01;50.03;98067.75;5009287;28;20458;-79
2022/07/20 00:48:21;;;;;;;6.70;5.97;;;21.70;51.20;;;21.15;49.88;98074.22;5006628;28;20550;-76
2022/07/20 00:50:48;;;;;;;7.40;5.43;;;21.70;51.20;;;21.03;50.35;98073.78;4995917;28;20459;-76
2022/07/20 00:53:16;;;;;;;7.50;5.63;;;21.70;51.30;;;20.97;50.27;98066.66;5000932;28;20523;-77
2022/07/20 00:55:43;;;;;;;6.50;5.70;;;21.60;51.40;;;20.93;50.22;98060.94;4994805;28;20456;-78
2022/07/20 00:58:13;;;;;;;6.10;5.50;;;21.60;51.60;;;20.90;50.47;98066.97;4997163;28;20451;-80
2022/07/20 01:00:40;;;;;;;6.93;6.13;;;21.60;51.60;;;20.97;50.26;98056.50;4997607;28;20467;-79
2022/07/20 01:03:07;;;;;;;6.57;5.30;;;21.60;51.60;;;20.94;50.20;98054.31;4997132;28;20466;-77
2022/07/20 01:05:35;;;;;;;5.97;5.37;;;21.60;51.60;;;20.79;50.50;98055.19;5010284;28;20498;-78
2022/07/20 01:08:03;;;;;;;6.20;5.60;;;21.50;51.60;;;20.79;50.55;98061.50;4994680;28;20888;-79
2022/07/20 01:10:30;;;;;;;6.03;5.50;;;21.50;51.60;;;20.82;50.98;98062.88;4991757;28;20470;-78
2022/07/20 01:12:58;;;;;;;6.07;5.33;;;21.50;51.80;;;20.81;50.33;98061.22;4993958;28;20533;-78
2022/07/20 01:15:26;;;;;;;7.90;5.73;;;21.40;51.70;;;20.51;50.76;98021.81;4988744;28;21136;-79
2022/07/20 01:17:53;;;;;;;6.07;5.33;;;21.40;51.60;;;20.81;50.30;98058.50;4992653;28;20454;-79
2022/07/20 01:20:25;;;;;;;5.60;5.10;;;21.50;51.70;;;20.67;50.83;98058.25;4997698;28;20588;-78
2022/07/20 01:22:53;;;;;;;7.70;5.47;;;21.40;51.70;;;20.69;50.70;98060.69;4996412;28;20460;-77
2022/07/20 01:25:20;;;;;;;6.70;6.10;;;21.30;51.80;;;20.70;50.69;98054.09;4988107;28;20466;-77
2022/07/20 01:27:48;;;;;;;7.23;5.20;;;21.40;51.90;;;20.67;50.82;98052.78;5013560;28;20470;-77
2022/07/20 01:30:15;;;;;;;6.13;5.33;;;21.30;51.90;;;20.55;51.10;98050.34;4990278;28;20466;-78
2022/07/20 01:32:43;;;;;;;6.80;6.20;;;21.30;52.10;;;20.27;50.98;98014.22;5015305;28;20540;-76
2022/07/20 01:35:10;;;;;;;6.10;5.50;;;21.20;52.00;;;20.44;51.26;98049.53;4995967;28;20492;-81
2022/07/20 01:37:38;;;;;;;6.33;5.73;;;21.20;52.10;;;20.30;51.75;98041.09;5017615;28;20509;-79
2022/07/20 01:40:08;;;;;;;7.50;5.70;;;21.10;52.30;;;20.24;51.76;98044.94;4993766;28;20465;-78
2022/07/20 01:42:36;;;;;;;5.93;5.30;;;21.00;52.40;;;20.25;52.06;98057.59;4996294;28;21329;-82
2022/07/20 01:45:04;;;;;;;7.83;5.80;;;21.00;52.60;;;20.13;52.49;98054.31;4991387;28;20804;-81
2022/07/20 01:47:31;;;;;;;6.27;5.67;;;20.80;52.70;;;20.02;52.97;98048.84;5000701;28;20482;-77
2022/07/20 01:49:58;;;;;;;6.87;6.23;;;20.80;52.90;;;19.99;52.96;98060.38;4993294;28;21276;-79
2022/07/20 01:52:26;;;;;;;8.90;5.80;;;20.70;53.10;;;19.96;52.88;98049.94;5011521;28;20542;-78
2022/07/20 01:54:53;;;;;;;8.80;5.90;;;20.70;53.10;;;19.89;53.22;98038.41;5011622;28;20461;-78
2022/07/20 01:57:22;;;;;;;6.10;5.60;;;20.60;53.30;;;19.92;53.05;98049.69;4992661;28;20474;-77
2022/07/20 01:59:50;;;;;;;7.47;5.73;;;20.60;53.20;;;19.94;52.99;98046.63;5001404;28;20459;-77
2022/07/20 02:02:17;;;;;;;7.37;6.20;;;20.60;53.30;;;19.88;53.41;98053.22;4996016;28;20458;-79
2022/07/20 02:04:44;;;;;;;7.93;5.90;;;20.60;53.40;;;19.82;53.02;98045.00;4998708;28;20564;-79
2022/07/20 02:07:12;;;;;;;6.60;5.90;;;20.60;53.40;;;19.70;53.09;98036.22;4990269;28;20473;-80
2022/07/20 02:09:39;;;;;;;7.50;5.67;;;20.50;53.40;;;19.73;53.58;98045.84;4993750;28;20955;-81
2022/07/20 02:12:07;;;;;;;8.37;5.80;;;20.40;53.50;;;19.72;53.53;98044.19;4995675;28;20698;-77
2022/07/20 02:14:36;;;;;;;5.70;5.30;;;20.40;53.70;;;19.72;53.73;98050.47;4995865;28;20466;-79
2022/07/20 02:17:04;;;;;;;6.40;5.70;;;20.40;53.90;;;19.72;53.61;98047.75;4997127;28;20552;-79
2022/07/20 02:19:31;;;;;;;6.00;5.50;;;20.40;53.80;;;19.71;53.53;98048.00;4993439;28;20474;-81
2022/07/20 02:21:58;;;;;;;8.87;6.33;;;20.40;53.80;;;19.66;53.87;98054.34;4993168;28;20476;-80
2022/07/20 02:24:26;;;;;;;5.73;5.23;;;20.30;53.90;;;19.62;53.84;98055.94;5010761;28;20466;-78
2022/07/20 02:26:53;;;;;;;6.93;5.80;;;20.30;54.00;;;19.58;53.90;98055.69;4998203;28;20457;-80
2022/07/20 02:29:20;;;;;;;6.60;6.00;;;20.30;54.00;;;19.57;54.02;98055.97;4998337;28;21290;-78
2022/07/20 02:31:49;;;;;;;5.90;5.40;;;20.20;54.10;;;19.50;54.16;98054.31;4995586;28;20474;-77
2022/07/20 02:34:16;;;;;;;8.80;6.20;;;20.20;54.10;;;19.48;54.29;98051.00;4992228;28;20500;-80
2022/07/20 02:36:43;;;;;;;7.33;6.70;;;20.20;54.30;;;19.47;54.14;98043.09;4993675;28;20986;-76
2022/07/20 02:39:10;;;;;;;6.70;6.00;;;20.20;54.30;;;19.42;54.46;98041.16;5006389;28;21004;-78
2022/07/20 02:41:37;;;;;;;5.93;5.43;;;20.10;54.30;;;19.36;54.40;98034.03;4997776;28;20466;-76
2022/07/20 02:44:05;;;;;;;6.30;5.70;;;20.10;54.40;;;19.36;54.32;98036.78;5007648;28;20475;-76
2022/07/20 02:46:33;;;;;;;6.37;5.30;;;20.10;54.40;;;19.25;54.61;98031.28;5008811;28;20658;-77
2022/07/20 02:49:02;;;;;;;6.27;5.67;;;20.00;54.50;;;19.30;54.69;98035.13;5006788;28;20463;-79
2022/07/20 02:51:29;;;;;;;6.73;6.00;;;20.00;54.70;;;19.34;54.22;98028.81;4996197;28;20471;-78
2022/07/20 02:53:56;;;;;;;6.37;5.83;;;20.00;54.40;;;19.32;54.41;98020.06;5000057;28;20715;-76
2022/07/20 02:56:24;;;;;;;8.40;5.70;;;20.00;54.60;;;19.42;54.00;98021.19;4991526;28;20472;-78
2022/07/20 02:58:51;;;;;;;6.37;5.70;;;20.10;54.50;;;19.38;54.24;98024.44;4997034;28;20466;-78
2022/07/20 03:01:19;;;;;;;5.83;5.10;;;20.10;54.60;;;19.52;53.77;98008.28;4995139;28;20452;-80
2022/07/20 03:03:46;;;;;;;7.47;5.83;;;20.20;54.60;;;19.46;54.08;98016.78;4997439;28;20470;-80
2022/07/20 03:06:15;;;;;;;6.50;5.27;;;20.10;54.60;;;19.54;53.38;98028.03;5001736;28;20468;-78
2022/07/20 03:08:43;;;;;;;6.50;5.90;;;20.20;54.20;;;19.48;53.82;98037.31;5015747;28;20844;-79
2022/07/20 03:11:10;;;;;;;6.73;6.10;;;20.10;54.30;;;19.41;53.99;98034.03;4993597;28;20524;-77
2022/07/20 03:13:38;;;;;;;6.90;5.90;;;20.10;54.50;;;19.44;54.04;98028.00;4993484;28;20932;-80
2022/07/20 03:16:06;;;;;;;8.23;5.70;;;20.10;54.60;;;19.40;54.28;98037.88;5013739;28;20850;-80
2022/07/20 03:18:33;;;;;;;6.20;5.60;;;20.00;54.70;;;19.39;53.90;98041.72;4999618;28;20447;-78
2022/07/20 03:21:02;;;;;;;6.63;6.03;;;20.00;54.50;;;19.45;53.73;98042.53;4998535;28;20475;-78
2022/07/20 03:23:31;;;;;;;7.43;6.63;;;20.00;54.50;;;19.39;53.85;98042.53;4995184;28;20459;-77
2022/07/20 03:25:58;;;;;;;5.90;5.33;;;20.00;54.50;;;19.32;54.15;98041.97;4995122;28;20463;-79
2022/07/20 03:28:25;;;;;;;6.00;5.50;;;20.00;54.60;;;19.24;54.43;98046.06;4992339;28;21099;-78
2022/07/20 03:30:52;;;;;;;5.80;5.30;;;20.00;54.70;;;19.16;54.54;98054.81;4996715;28;20836;-77
2022/07/20 03:33:20;;;;;;;7.30;6.40;;;19.90;54.60;;;19.06;54.70;98050.16;5009040;28;20478;-77
2022/07/20 03:35:47;;;;;;;7.27;6.30;;;19.80;54.70;;;18.96;55.04;98053.66;5006432;28;20470;-77
2022/07/20 03:38:14;;;;;;;6.30;5.80;;;19.80;54.90;;;19.01;55.08;98052.88;4996659;28;20467;-78
2022/07/20 03:40:43;;;;;;;6.10;5.60;;;19.80;54.90;;;19.04;54.97;98065.22;5012643;28;20486;-79
2022/07/20 03:43:10;;;;;;;7.27;6.53;;;19.70;54.90;;;19.02;54.85;98061.91;4994726;28;20531;-76
2022/07/20 03:45:38;;;;;;;6.57;5.83;;;19.80;55.00;;;19.01;55.16;98057.53;4997039;28;20450;-79
2022/07/20 03:48:08;;;;;;;7.17;6.17;;;19.80;55.30;;;18.91;55.47;98050.91;4993644;28;20468;-79
2022/07/20 03:50:35;;;;;;;6.83;6.20;;;19.70;55.10;;;18.94;55.16;98058.56;4994906;28;20465;-77
2022/07/20 03:53:03;;;;;;;7.43;6.63;;;19.70;55.10;;;18.89;55.26;98055.84;4990983;28;20487;-80
2022/07/20 03:55:30;;;;;;;7.67;6.97;;;19.70;55.10;;;18.98;55.00;98065.16;4993519;28;20471;-77
2022/07/20 03:57:58;;;;;;;7.20;6.60;;;19.70;55.10;;;19.00;54.75;98064.94;4998379;28;20490;-78
2022/07/20 04:00:26;;;;;;;7.07;6.47;;;19.80;55.10;;;19.02;54.85;98059.16;4995800;28;20514;-77
2022/07/20 04:02:54;;;;;;;7.10;6.40;;;19.80;55.00;;;18.66;54.71;98003.22;4995303;28;20476;-77
2022/07/20 04:05:22;;;;;;;6.90;6.30;;;19.80;55.00;;;19.05;54.91;98062.19;4987385;28;20456;-77
2022/07/20 04:07:49;;;;;;;7.50;6.80;;;19.80;55.10;;;19.09;54.66;98054.25;5006082;28;20455;-78
2022/07/20 04:10:16;;;;;;;9.50;6.03;;;19.80;55.00;;;19.06;55.19;98050.16;4997675;28;20455;-79
2022/07/20 04:12:43;;;;;;;6.97;6.27;;;19.90;55.20;;;19.13;55.06;98049.88;4994949;28;20481;-80
2022/07/20 04:15:13;;;;;;;7.70;5.83;;;19.90;55.40;;;19.18;55.19;98052.63;4989838;28;20468;-79
2022/07/20 04:17:41;;;;;;;6.50;5.90;;;19.90;55.40;;;19.63;53.31;98052.13;5005978;28;20484;-80
2022/07/20 04:20:10;;;;;;;7.83;6.20;;;20.30;54.70;;;20.54;50.81;98054.16;4996629;28;20502;-77
2022/07/20 04:22:38;;;;;;;9.57;6.27;;;21.20;53.80;;;21.31;48.04;98010.97;4989236;28;20962;-76
2022/07/20 04:25:06;;;;;;;7.10;5.97;;;22.30;52.50;;;22.10;45.77;98023.75;4985552;28;20973;-78
2022/07/20 04:27:33;;;;;;;7.53;5.77;;;23.20;50.80;;;22.57;44.97;98062.63;4993007;28;21185;-81
2022/07/20 04:30:01;;;;;;;7.33;6.40;;;23.70;50.00;;;22.22;45.29;98057.19;4996921;28;20571;-79
2022/07/20 04:32:30;;;;;;;6.23;5.73;;;23.60;49.60;;;22.46;45.20;98067.41;4992784;28;20541;-78
2022/07/20 04:34:58;;;;;;;10.50;5.60;;;23.70;49.80;;;22.88;44.54;98067.75;4990034;28;20456;-79
2022/07/20 04:37:25;;;;;;;6.87;6.23;;;24.00;49.70;;;23.07;43.70;98058.66;4990782;28;20469;-76
2022/07/20 04:39:52;;;;;;;6.90;6.20;;;24.30;49.10;;;23.16;43.46;98073.44;4993177;28;20474;-77
2022/07/20 04:42:20;;;;;;;6.10;5.60;;;24.50;48.90;;;23.72;42.79;98067.38;4991416;28;20475;-78
2022/07/20 04:44:47;;;;;;;7.60;4.90;;;24.80;48.80;;;24.42;41.26;98073.06;4993941;28;20458;-77
2022/07/20 04:47:14;;;;;;;6.03;5.43;;;25.50;48.30;;;24.11;41.49;98076.41;4997098;28;20486;-79
2022/07/20 04:49:44;;;;;;;5.90;5.30;;;25.50;48.00;;;23.95;42.03;98079.41;4994540;28;20581;-78
2022/07/20 04:52:11;;;;;;;6.63;5.97;;;25.30;48.10;;;23.76;42.83;98079.44;4997943;28;20467;-79
2022/07/20 04:54:38;;;;;;;7.97;5.80;;;25.00;48.30;;;23.54;43.14;98080.06;5012769;28;20493;-79
2022/07/20 04:57:06;;;;;;;7.00;6.30;;;24.90;48.40;;;23.79;41.84;98075.25;5004767;28;20445;-74
2022/07/20 04:59:33;;;;;;;6.93;6.13;;;24.90;48.00;;;23.52;42.51;98076.78;4999102;28;20482;-79
2022/07/20 05:02:01;;;;;;;9.77;6.10;;;25.00;48.10;;;23.75;41.90;98073.13;5009794;28;20466;-80
2022/07/20 05:04:28;;;;;;;5.87;5.33;;;25.00;48.00;;;23.83;41.52;98068.00;5001287;28;21231;-81
2022/07/20 05:06:57;;;;;;;5.43;4.73;;;25.20;47.70;;;24.19;40.65;98070.19;5012479;28;20455;-77
2022/07/20 05:09:25;;;;;;;6.30;5.10;;;25.30;47.40;;;24.48;40.31;98066.31;4998417;28;20463;-76
2022/07/20 05:11:52;;;;;;;6.13;5.50;;;25.50;47.30;;;24.70;40.15;98067.53;4996375;28;20495;-76
2022/07/20 05:14:19;;;;;;;6.10;5.50;;;25.70;47.10;;;24.73;39.46;98062.22;5002010;28;20478;-77
2022/07/20 05:16:47;;;;;;;11.23;5.73;;;25.90;46.70;;;24.92;39.45;98069.59;5000386;28;20463;-77
2022/07/20 05:19:14;;;;;;;6.97;5.40;;;26.30;46.90;;;25.00;39.07;98071.63;4999193;28;20477;-76
2022/07/20 05:21:42;;;;;;;5.97;5.37;;;26.30;46.40;;;25.50;37.53;98071.94;5001645;28;20443;-77
2022/07/20 05:24:10;;;;;;;6.60;5.20;;;26.70;46.00;;;25.29;38.22;98072.41;5005844;28;21177;-76
2022/07/20 05:26:38;;;;;;;8.47;5.50;;;26.60;45.70;;;25.40;38.33;98072.97;5012732;28;20466;-76
2022/07/20 05:29:05;;;;;;;6.23;5.63;;;26.60;45.90;;;26.15;37.19;98064.22;5001662;28;20477;-77
2022/07/20 05:31:32;;;;;;;6.00;5.50;;;27.20;45.70;;;26.67;36.85;98069.19;4996725;28;20475;-77
2022/07/20 05:34:00;;;;;;;8.80;5.63;;;27.70;45.60;;;26.86;35.72;98068.94;4994538;28;20512;-76
2022/07/20 05:36:27;;;;;;;7.10;4.93;;;28.30;44.80;;;26.87;34.50;98067.00;4995812;28;20455;-76
2022/07/20 05:38:55;;;;;;;6.17;4.80;;;28.60;44.00;;;27.85;33.64;98066.72;4993951;28;20984;-78
2022/07/20 05:41:23;;;;;;;5.33;4.83;;;28.90;44.00;;;27.43;33.65;98063.63;4989014;28;20471;-78
2022/07/20 05:43:51;;;;;;;7.77;5.60;;;28.90;43.70;;;26.91;34.29;98072.69;4994203;28;20471;-73
2022/07/20 05:46:18;;;;;;;9.23;5.53;;;28.80;43.30;;;27.32;33.84;98074.25;4992526;28;20492;-77
2022/07/20 05:48:45;;;;;;;12.87;5.57;;;28.80;43.50;;;27.36;34.50;98066.09;4996268;28;20486;-75
2022/07/20 05:51:12;;;;;;;6.80;5.20;;;29.00;43.70;;;27.55;33.77;98080.47;4998596;28;20467;-72
2022/07/20 05:53:40;;;;;;;5.27;4.77;;;29.00;43.30;;;27.86;32.68;98073.09;4991248;28;20473;-72
2022/07/20 05:56:08;;;;;;;8.23;4.73;;;29.40;42.70;;;27.34;33.60;98069.19;4996495;28;20459;-74
2022/07/20 05:58:37;;;;;;;5.70;5.20;;;29.00;43.10;;;27.43;34.19;98072.78;4990282;28;20490;-70
2022/07/20 06:01:04;;;;;;;6.27;5.63;;;28.80;43.40;;;26.55;34.55;98022.72;4998539;28;20456;-72
2022/07/20 06:03:31;;;;;;;6.57;5.63;;;28.50;43.30;;;26.54;35.53;98070.94;4997048;28;20458;-72
2022/07/20 06:05:59;;;;;;;9.77;5.23;;;28.10;43.80;;;26.52;35.04;98031.69;4997816;28;20459;-72
2022/07/20 06:08:26;;;;;;;5.30;4.63;;;28.10;43.70;;;27.20;33.73;98074.88;5004355;28;20848;-72
2022/07/20 06:10:53;;;;;;;5.40;4.90;;;28.50;43.50;;;28.00;33.33;98075.69;4995378;28;20846;-72
2022/07/20 06:13:20;;;;;;;8.17;5.50;;;29.20;43.30;;;28.25;32.23;98073.22;4995940;28;20534;-72
2022/07/20 06:15:49;;;;;;;10.03;5.47;;;29.80;42.80;;;27.96;32.78;98075.53;4997709;28;21330;-73
2022/07/20 06:18:16;;;;;;;5.70;5.20;;;29.50;42.60;;;28.42;32.16;98066.75;4998889;28;20521;-71
2022/07/20 06:20:44;;;;;;;5.70;5.10;;;29.80;42.60;;;27.49;33.56;98067.88;5008176;28;20909;-71
2022/07/20 06:23:11;;;;;;;5.87;5.00;;;29.30;42.70;;;26.90;34.37;98065.53;4997884;28;20471;-72
2022/07/20 06:25:38;;;;;;;8.83;5.40;;;28.50;42.90;;;26.32;35.78;98066.28;4983310;28;20952;-72
2022/07/20 06:28:07;;;;;;;5.83;5.23;;;27.80;43.70;;;25.90;36.38;98072.06;4993570;28;20466;-70
2022/07/20 06:30:34;;;;;;;9.70;4.93;;;27.20;44.10;;;25.69;37.41;98060.69;4998527;28;20470;-70
2022/07/20 06:33:03;;;;;;;4.90;4.50;;;26.80;44.70;;;25.77;38.04;98064.66;4990913;28;20471;-70
2022/07/20 06:35:30;;;;;;;8.07;5.47;;;26.70;45.50;;;25.94;37.09;98067.53;4992118;28;20455;-70
2022/07/20 06:37:58;;;;;;;9.67;5.60;;;26.70;45.30;;;25.90;37.18;98063.78;4997441;28;20475;-78
2022/07/20 06:40:26;;;;;;;5.93;5.20;;;26.70;45.20;;;25.72;37.46;98060.06;4991123;28;20451;-78
2022/07/20 06:42:53;;;;;;;5.70;4.93;;;26.50;45.20;;;25.58;38.16;98062.91;4996986;28;20471;-79
2022/07/20 06:45:20;;;;;;;7.13;5.00;;;26.40;45.40;;;25.58;37.50;98063.72;4991441;28;21124;-76
2022/07/20 06:47:49;;;;;;;8.00;5.60;;;26.30;45.40;;;25.52;37.58;98058.59;4989881;28;20557;-78
2022/07/20 06:50:17;;;;;;;9.73;6.20;;;26.30;45.20;;;25.43;38.74;98050.22;4993320;28;21094;-77
2022/07/20 06:52:45;;;;;;;5.20;4.70;;;26.20;45.90;;;25.59;37.55;98059.00;4996945;28;20983;-79
2022/07/20 06:55:12;;;;;;;8.00;5.83;;;26.30;45.30;;;25.62;37.73;98055.59;4993561;28;21433;-78
2022/07/20 06:57:39;;;;;;;5.97;5.10;;;26.30;45.60;;;25.82;36.96;98064.50;4991024;28;20528;-78
2022/07/20 07:00:09;;;;;;;7.00;4.57;;;26.40;45.30;;;26.20;36.66;98050.28;5007475;28;20475;-78
2022/07/20 07:02:36;;;;;;;5.23;4.80;;;26.70;45.30;;;26.38;35.22;98047.59;4989873;28;20456;-78
2022/07/20 07:05:05;;;;;;;5.07;4.67;;;26.90;44.50;;;26.53;35.94;98052.69;4993004;28;20471;-78
2022/07/20 07:07:33;;;;;;;6.07;4.60;;;27.10;44.80;;;26.47;35.63;98054.00;4991208;28;20549;-76
2022/07/20 07:10:00;;;;;;;7.90;4.90;;;27.10;44.60;;;26.33;35.73;98036.66;4994757;28;20466;-79
2022/07/20 07:12:28;;;;;;;6.57;4.57;;;27.10;44.80;;;26.47;35.97;98048.44;5002808;28;20449;-78
2022/07/20 07:14:55;;;;;;;6.03;4.87;;;27.10;44.80;;;26.63;36.13;98054.34;5013272;28;20476;-78
2022/07/20 07:17:22;;;;;;;5.20;4.70;;;27.20;45.00;;;26.70;36.45;98045.56;5015861;28;20467;-77
2022/07/20 07:19:49;;;;;;;7.23;5.30;;;27.20;45.20;;;26.69;36.49;98043.94;5008791;28;20480;-78
2022/07/20 07:22:17;;;;;;;6.03;5.40;;;27.30;45.20;;;26.73;36.43;98039.38;4997632;28;20507;-79
2022/07/20 07:24:45;;;;;;;9.37;5.00;;;27.30;45.40;;;26.65;36.33;98038.22;4996471;28;20455;-79
2022/07/20 07:27:13;;;;;;;6.60;5.00;;;27.30;45.10;;;26.40;36.50;98031.47;4994187;28;20463;-79
2022/07/20 07:29:40;;;;;;;7.60;5.40;;;27.10;45.00;;;26.35;36.47;98051.00;4999150;28;20456;-79
2022/07/20 07:32:08;;;;;;;5.50;5.00;;;27.00;45.10;;;26.49;36.25;98043.41;5004347;28;20517;-79
2022/07/20 07:34:36;;;;;;;5.73;4.83;;;27.10;45.30;;;26.90;35.94;98054.44;4999276;28;20542;-79
2022/07/20 07:37:03;;;;;;;7.67;4.97;;;27.30;45.10;;;27.11;35.53;98058.25;5001459;28;20603;-78
2022/07/20 07:39:31;;;;;;;5.47;5.07;;;27.50;45.10;;;27.20;35.31;98052.72;4999543;28;21190;-78
2022/07/20 07:41:59;;;;;;;6.90;4.80;;;27.70;44.90;;;27.31;34.98;98039.31;4996531;28;20927;-78
2022/07/20 07:44:26;;;;;;;6.47;5.00;;;27.90;44.70;;;27.28;34.73;98038.00;5006347;28;20462;-79
2022/07/20 07:46:54;;;;;;;5.63;5.00;;;27.90;44.60;;;27.28;35.27;98040.00;5002254;28;20951;-77
2022/07/20 07:49:21;;;;;;;5.90;5.10;;;28.00;44.70;;;27.22;35.11;98041.28;5002092;28;20460;-78
2022/07/20 07:51:49;;;;;;;5.63;5.03;;;27.80;44.70;;;27.52;34.75;98046.97;4994974;28;20460;-77
2022/07/20 07:54:16;;;;;;;6.30;5.70;;;27.90;44.60;;;27.63;34.43;98042.75;4997894;28;20553;-77
2022/07/20 07:56:44;;;;;;;6.00;4.90;;;28.10;44.50;;;27.73;34.47;98043.59;4994033;28;20562;-77
2022/07/20 07:59:13;;;;;;;7.33;4.60;;;28.20;44.50;;;27.94;34.15;98041.72;5015853;28;20455;-79
2022/07/20 08:01:40;;;;;;;5.50;5.00;;;28.40;44.40;;;28.13;33.22;98037.75;4995465;28;20443;-78
2022/07/20 08:04:08;;;;;;;5.83;4.90;;;28.60;43.90;;;28.08;33.83;98037.94;5001746;28;20640;-79
2022/07/20 08:06:36;;;;;;;6.77;4.87;;;28.70;44.10;;;28.23;33.21;98031.06;4997178;28;20546;-80
2022/07/20 08:09:04;;;;;;;5.70;5.10;;;28.70;43.90;;;28.17;33.51;98033.22;4997096;28;20493;-78
2022/07/20 08:11:32;;;;;;;6.10;5.33;;;28.70;43.90;;;28.42;33.16;98027.88;4997036;28;21198;-77
2022/07/20 08:14:02;;;;;;;10.23;4.97;;;28.90;44.00;;;28.63;31.94;98027.13;4995912;28;20638;-78
2022/07/20 08:16:32;;;;;;;7.77;4.77;;;29.00;43.60;;;28.74;32.35;98017.25;5011416;28;20451;-78
2022/07/20 08:18:59;;;;;;;7.67;5.10;;;29.20;43.60;;;28.91;31.55;98021.91;4997082;28;20546;-76
2022/07/20 08:21:27;;;;;;;6.37;5.00;;;29.30;43.20;;;29.24;31.41;98017.59;4989222;28;20467;-77
2022/07/20 08:23:54;;;;;;;7.17;4.80;;;29.60;43.20;;;29.57;30.62;98014.03;5006603;28;20529;-76
2022/07/20 08:26:21;;;;;;;5.03;4.20;;;29.90;42.90;;;29.80;30.45;98016.41;5010214;28;20464;-77
2022/07/20 08:28:49;;;;;;;6.40;4.40;;;30.10;42.60;;;29.62;30.19;98013.81;5013102;28;20455;-76
2022/07/20 08:31:16;;;;;;;4.93;4.13;;;30.10;42.10;;;29.76;30.21;98016.31;4999150;28;20462;-77
2022/07/20 08:33:45;;;;;;;5.30;3.60;;;30.20;42.20;;;29.99;29.48;98001.97;4994501;28;20985;-77
2022/07/20 08:36:13;;;;;;;4.97;4.57;;;30.30;42.00;;;29.95;29.13;98007.44;4987695;28;20514;-77
2022/07/20 08:38:40;;;;;;;4.77;3.87;;;30.40;41.80;;;30.19;28.57;98005.84;4992027;28;20483;-76
2022/07/20 08:41:08;;;;;;;4.60;4.20;;;30.50;41.50;;;30.21;28.59;98002.72;4986099;28;20459;-75
2022/07/20 08:43:36;;;;;;;7.87;4.37;;;30.60;41.30;;;30.30;28.28;97997.06;4994444;28;20542;-75
2022/07/20 08:46:03;;;;;;;5.00;4.53;;;30.70;41.30;;;30.16;28.42;97972.31;4989356;28;20959;-76
2022/07/20 08:48:33;;;;;;;24.20;6.67;;;30.70;41.30;;;30.59;28.22;97996.00;4989948;28;20589;-77
2022/07/20 08:51:02;;;;;;;5.97;4.43;;;30.90;41.40;;;30.67;28.30;97991.47;4989084;28;21017;-77
2022/07/20 08:53:30;;;;;;;6.57;4.93;;;31.00;41.10;;;30.80;27.67;97995.88;4990539;28;20868;-76
2022/07/20 08:55:57;;;;;;;5.97;4.20;;;31.10;41.10;;;30.99;27.43;97993.66;4989162;28;20483;-77
2022/07/20 08:58:24;;;;;;;5.73;4.10;;;31.30;41.00;;;30.91;27.45;97998.19;4995220;28;20459;-77
2022/07/20 09:00:52;;;;;;;6.23;4.63;;;31.30;40.90;;;30.99;27.43;97996.44;4994279;28;20455;-76
2022/07/20 09:03:21;;;;;;;4.57;4.27;;;31.30;40.80;;;31.07;27.52;98004.66;4992253;28;20474;-76
2022/07/20 09:06:05;;;;;;;4.40;4.00;;;31.40;41.00;;;31.25;27.21;97998.03;5000018;28;20458;-76
2022/07/20 09:08:33;;;;;;;5.10;3.60;;;31.50;40.80;;;31.26;27.11;97992.06;5009957;28;20460;-78
2022/07/20 09:11:02;;;;;;;9.77;4.43;;;31.60;40.70;;;31.21;27.33;97997.91;5000088;28;20911;-78
2022/07/20 09:13:31;;;;;;;11.10;5.17;;;31.70;40.60;;;31.21;27.19;97997.91;4994510;28;20451;-77
2022/07/20 09:15:59;;;;;;;6.90;5.07;;;31.70;40.60;;;31.30;27.03;97995.75;4993556;28;20511;-78
2022/07/20 09:18:29;;;;;;;6.57;4.13;;;31.70;40.50;;;31.36;26.82;97988.78;4999135;28;20451;-79
2022/07/20 09:21:00;;;;;;;6.43;4.80;;;31.70;40.50;;;31.50;27.23;97988.38;4987511;28;20474;-77
2022/07/20 09:23:31;;;;;;;4.97;4.47;;;31.80;40.50;;;31.62;26.97;97993.09;4992942;28;20467;-77
2022/07/20 09:26:01;;;;;;;5.43;4.10;;;31.90;40.50;;;31.69;26.27;97986.06;4987434;28;20460;-77
2022/07/20 09:28:38;;;;;;;4.63;4.23;;;32.00;40.30;;;31.81;26.66;97980.44;4990512;28;20481;-77
2022/07/20 09:31:12;;;;;;;4.80;4.40;;;32.10;40.40;;;32.11;26.34;97982.81;5008481;28;20501;-77
2022/07/20 09:33:40;;;;;;;4.97;4.63;;;32.30;40.40;;;32.16;26.08;97974.16;5000075;28;20467;-77
2022/07/20 09:36:08;;;;;;;6.63;4.40;;;32.50;40.10;;;32.05;26.33;97973.88;4992238;28;20491;-78
2022/07/20 09:38:40;;;;;;;5.60;4.30;;;32.50;40.10;;;32.31;26.16;97964.16;5009079;28;20469;-78
2022/07/20 09:41:22;;;;;;;4.90;4.50;;;32.60;40.20;;;32.53;25.25;97967.47;5011752;28;20451;-77
2022/07/20 09:43:51;;;;;;;5.63;4.37;;;32.80;39.80;;;32.47;25.36;97975.31;4996040;28;20472;-77
2022/07/20 09:46:21;;;;;;;5.70;4.20;;;32.80;39.80;;;32.58;25.35;97977.56;5002776;28;20463;-78
2022/07/20 09:48:51;;;;;;;4.60;4.23;;;32.80;39.70;;;32.74;25.48;97963.53;5012337;28;20565;-78
2022/07/20 09:51:20;;;;;;;4.70;4.20;;;33.00;39.90;;;32.78;24.91;97961.66;5010707;28;20463;-77
2022/07/20 09:53:51;;;;;;;4.13;3.77;;;33.00;39.70;;;32.63;25.12;97963.28;5001228;28;20524;-76
2022/07/20 09:56:20;;;;;;;4.17;3.87;;;33.00;39.40;;;32.75;25.02;97959.56;4997032;28;20513;-77
2022/07/20 09:58:50;;;;;;;5.60;4.40;;;33.00;39.50;;;32.94;24.94;97964.41;4994402;28;21263;-77
2022/07/20 10:01:20;;;;;;;4.50;4.10;;;33.10;39.50;;;32.75;24.85;97965.16;4992173;28;20470;-78
2022/07/20 10:03:50;;;;;;;4.87;4.33;;;33.10;39.20;;;32.66;25.19;97954.16;4991185;28;20514;-80
2022/07/20 10:06:19;;;;;;;4.43;4.03;;;33.00;39.30;;;32.73;24.96;97962.72;4990583;28;20458;-76
2022/07/20 10:08:49;;;;;;;5.43;4.40;;;33.00;39.30;;;33.04;24.70;97957.41;4993936;28;21072;-76
2022/07/20 10:11:19;;;;;;;4.57;4.17;;;33.20;39.40;;;33.11;24.21;97954.78;5008048;28;20463;-79
2022/07/20 10:13:48;;;;;;;5.03;4.53;;;33.40;39.10;;;33.19;24.34;97955.72;5010013;28;20515;-78
2022/07/20 10:16:27;;;;;;;4.87;4.47;;;33.50;39.20;;;33.25;24.59;97954.25;4990121;28;20492;-77
2022/07/20 10:18:56;;;;;;;4.43;4.13;;;33.50;39.30;;;33.26;24.19;97955.88;4993477;28;20516;-76
2022/07/20 10:21:36;;;;;;;5.03;4.63;;;33.50;38.80;;;33.23;24.34;97964.22;5010559;28;20485;-76
2022/07/20 10:24:27;;;;;;;5.50;5.00;;;33.50;39.10;;;33.30;24.22;97958.75;4997319;28;20967;-76
2022/07/20 10:27:17;;;;;;;5.50;5.10;;;33.60;39.10;;;33.04;24.50;97951.81;4992966;28;20955;-77
2022/07/20 10:29:47;;;;;;;5.30;4.80;;;33.50;39.00;;;33.22;24.43;97960.59;4997599;28;20467;-77